createdAt,value
2018-08-31T00:02:27.200Z,4.57
2018-08-31T00:07:43.441Z,4.60
2018-08-31T00:12:46.949Z,4.40
2018-08-31T00:17:50.989Z,4.80
2018-08-31T00:22:54.638Z,4.73
2018-08-31T00:28:09.274Z,4.03
2018-08-31T00:33:25.152Z,4.43
2018-08-31T00:38:49.537Z,4.70
2018-08-31T00:44:04.065Z,4.50
2018-08-31T00:49:07.824Z,4.17
2018-08-31T00:54:12.055Z,3.20
2018-08-31T00:59:16.385Z,3.20
2018-08-31T01:04:20.549Z,3.50
2018-08-31T01:09:24.203Z,4.10
2018-08-31T01:14:28.376Z,4.23
2018-08-31T01:19:32.212Z,5.07
2018-08-31T01:24:35.939Z,5.47
2018-08-31T01:29:39.615Z,3.47
2018-08-31T01:34:43.732Z,3.77
2018-08-31T01:39:47.477Z,3.60
2018-08-31T01:44:51.334Z,4.40
2018-08-31T01:49:54.771Z,5.60
2018-08-31T01:54:58.430Z,4.40
2018-08-31T02:00:03.468Z,4.20
2018-08-31T02:05:07.649Z,4.13
2018-08-31T02:10:11.559Z,4.20
2018-08-31T02:15:15.967Z,3.90
2018-08-31T02:20:19.463Z,4.13
2018-08-31T02:25:22.913Z,3.73
2018-08-31T02:30:26.576Z,4.67
2018-08-31T02:35:30.585Z,4.30
2018-08-31T02:40:34.021Z,5.07
2018-08-31T02:45:37.690Z,5.17
2018-08-31T02:50:41.237Z,4.73
2018-08-31T02:55:44.848Z,3.50
2018-08-31T03:00:48.904Z,3.40
2018-08-31T03:05:52.694Z,3.90
2018-08-31T03:10:56.234Z,4.87
2018-08-31T03:16:00.186Z,4.10
2018-08-31T03:21:04.141Z,5.00
2018-08-31T03:26:07.816Z,2.70
2018-08-31T03:31:11.430Z,4.80
2018-08-31T03:36:15.807Z,4.60
2018-08-31T03:41:19.604Z,3.93
2018-08-31T03:46:23.724Z,4.20
2018-08-31T03:51:27.124Z,3.73
2018-08-31T03:56:30.517Z,4.50
2018-08-31T04:01:33.799Z,4.90
2018-08-31T04:06:37.654Z,4.63
2018-08-31T04:11:41.248Z,4.10
2018-08-31T04:16:45.179Z,4.00
2018-08-31T04:21:48.518Z,3.83
2018-08-31T04:26:51.844Z,4.30
2018-08-31T04:31:57.001Z,4.30
2018-08-31T04:37:01.065Z,4.80
2018-08-31T04:42:04.482Z,5.27
2018-08-31T04:47:07.907Z,5.70
2018-08-31T04:52:11.354Z,5.17
2018-08-31T04:57:14.722Z,4.87
2018-08-31T05:02:18.063Z,4.20
2018-08-31T05:07:22.312Z,5.33
2018-08-31T05:12:26.069Z,6.10
2018-08-31T05:17:29.730Z,5.27
2018-08-31T05:22:33.204Z,5.10
2018-08-31T05:27:36.571Z,5.10
2018-08-31T05:32:39.902Z,5.03
2018-08-31T05:37:43.434Z,4.60
2018-08-31T05:42:47.072Z,5.47
2018-08-31T05:47:50.472Z,5.70
2018-08-31T05:52:53.824Z,5.10
2018-08-31T05:57:57.137Z,5.20
2018-08-31T06:03:00.468Z,4.60
2018-08-31T06:08:03.823Z,4.80
2018-08-31T06:13:07.534Z,5.53
2018-08-31T06:18:11.179Z,7.40
2018-08-31T06:23:14.518Z,6.00
2018-08-31T06:28:17.875Z,5.67
2018-08-31T06:33:24.459Z,5.30
2018-08-31T06:38:28.077Z,7.23
2018-08-31T06:43:31.738Z,6.13
2018-08-31T06:48:35.126Z,5.60
2018-08-31T06:53:38.501Z,4.00
2018-08-31T06:58:41.823Z,5.20
2018-08-31T07:03:45.202Z,4.50
2018-08-31T07:08:48.711Z,5.53
2018-08-31T07:13:52.035Z,5.70
2018-08-31T07:18:55.964Z,5.20
2018-08-31T07:23:59.299Z,5.27
2018-08-31T07:38:36.568Z,6.63
2018-08-31T07:43:40.103Z,5.73
2018-08-31T07:48:43.517Z,6.60
2018-08-31T07:53:47.086Z,5.53
2018-08-31T07:58:50.506Z,6.07
2018-08-31T08:03:53.843Z,6.00
2018-08-31T08:08:57.256Z,6.20
2018-08-31T08:14:00.726Z,6.30
2018-08-31T08:19:04.720Z,6.23
2018-08-31T08:24:08.108Z,8.37
2018-08-31T08:29:11.733Z,7.33
2018-08-31T08:34:15.073Z,6.07
2018-08-31T08:39:20.657Z,7.37
2018-08-31T08:44:24.116Z,6.43
2018-08-31T08:49:27.736Z,6.37
2018-08-31T08:54:31.150Z,6.13
2018-08-31T08:59:34.521Z,8.13
2018-08-31T09:04:37.860Z,7.60
2018-08-31T09:09:41.185Z,6.33
2018-08-31T09:14:44.649Z,6.77
2018-08-31T09:19:48.028Z,6.10
2018-08-31T09:24:51.353Z,6.30
2018-08-31T09:29:58.591Z,5.30
2018-08-31T09:35:02.247Z,6.80
2018-08-31T09:40:05.651Z,5.60
2018-08-31T09:45:09.051Z,4.97
2018-08-31T09:50:12.368Z,6.60
2018-08-31T09:55:16.084Z,5.90
2018-08-31T10:00:24.825Z,5.80
2018-08-31T10:05:28.220Z,5.13
2018-08-31T10:10:31.503Z,5.83
2018-08-31T10:15:35.220Z,6.67
2018-08-31T10:20:38.709Z,6.43
2018-08-31T10:25:42.289Z,7.30
2018-08-31T10:30:45.672Z,6.30
2018-08-31T10:35:48.947Z,6.33
2018-08-31T10:40:52.224Z,6.30
2018-08-31T10:45:55.820Z,5.00
2018-08-31T10:50:59.299Z,6.27
2018-08-31T10:56:02.972Z,4.90
2018-08-31T11:01:06.535Z,6.03
2018-08-31T11:06:10.455Z,5.83
2018-08-31T11:11:13.762Z,5.50
2018-08-31T11:16:18.192Z,4.90
2018-08-31T11:21:21.554Z,5.07
2018-08-31T11:26:24.942Z,5.10
2018-08-31T11:31:29.938Z,4.70
2018-08-31T11:36:33.229Z,4.60
2018-08-31T11:41:36.824Z,4.70
2018-08-31T11:46:40.333Z,5.50
2018-08-31T11:51:43.840Z,5.47
2018-08-31T11:56:47.972Z,4.30
2018-08-31T12:01:51.763Z,6.17
2018-08-31T12:06:55.151Z,4.97
2018-08-31T12:11:58.491Z,4.37
2018-08-31T12:17:02.412Z,5.00
2018-08-31T12:22:05.868Z,4.63
2018-08-31T12:27:09.840Z,4.90
2018-08-31T12:32:13.752Z,5.43
2018-08-31T12:37:17.248Z,5.40
2018-08-31T12:42:20.625Z,6.63
2018-08-31T12:47:24.264Z,5.10
2018-08-31T12:52:27.636Z,5.07
2018-08-31T12:57:32.496Z,6.00
2018-08-31T13:02:35.986Z,5.23
2018-08-31T13:07:39.806Z,5.73
2018-08-31T13:12:43.190Z,5.73
2018-08-31T13:17:46.882Z,5.87
2018-08-31T13:22:50.427Z,4.33
2018-08-31T13:27:53.897Z,5.50
2018-08-31T13:32:57.394Z,6.07
2018-08-31T13:38:01.101Z,5.87
2018-08-31T13:43:04.732Z,5.60
2018-08-31T13:48:08.449Z,5.10
2018-08-31T13:53:13.050Z,4.80
2018-08-31T13:58:16.458Z,5.57
2018-08-31T14:03:19.825Z,5.07
2018-08-31T14:08:23.518Z,5.30
2018-08-31T14:13:26.865Z,4.73
2018-08-31T14:18:32.871Z,5.10
2018-08-31T14:23:38.136Z,4.73
2018-08-31T14:28:41.665Z,4.60
2018-08-31T14:33:49.900Z,4.70
2018-08-31T14:38:53.483Z,4.60
2018-08-31T14:43:57.197Z,4.87
2018-08-31T14:49:01.131Z,4.70
2018-08-31T14:54:04.681Z,4.90
2018-08-31T14:59:08.506Z,4.90
2018-08-31T15:04:12.124Z,4.90
2018-08-31T15:09:15.425Z,4.57
2018-08-31T15:14:18.963Z,4.80
2018-08-31T15:19:22.713Z,4.40
2018-08-31T15:24:26.598Z,4.50
2018-08-31T15:29:30.271Z,4.60
2018-08-31T15:34:34.046Z,4.40
2018-08-31T15:39:40.834Z,3.90
2018-08-31T15:44:44.219Z,4.00
2018-08-31T15:49:47.812Z,4.30
2018-08-31T15:54:51.492Z,3.17
2018-08-31T15:59:55.850Z,3.87
2018-08-31T16:04:59.414Z,3.10
2018-08-31T16:10:02.748Z,3.77
2018-08-31T16:15:06.260Z,3.30
2018-08-31T16:20:11.862Z,3.23
2018-08-31T16:25:15.656Z,3.97
2018-08-31T16:30:19.401Z,3.23
2018-08-31T16:35:22.888Z,3.00
2018-08-31T16:40:26.597Z,3.20
2018-08-31T16:45:30.107Z,2.83
2018-08-31T16:50:34.006Z,3.20
2018-08-31T16:55:37.420Z,4.40
2018-08-31T17:00:41.221Z,3.93
2018-08-31T17:05:44.697Z,4.97
2018-08-31T17:10:48.504Z,4.80
2018-08-31T17:15:51.956Z,5.60
2018-08-31T17:20:56.985Z,4.57
2018-08-31T17:26:01.205Z,5.07
2018-08-31T17:31:10.988Z,4.90
2018-08-31T17:36:20.582Z,4.90
2018-08-31T17:41:24.078Z,5.30
2018-08-31T17:46:27.653Z,4.10
2018-08-31T17:51:32.084Z,3.47
2018-08-31T17:56:35.573Z,4.23
2018-08-31T18:01:39.037Z,3.53
2018-08-31T18:06:42.707Z,5.27
2018-08-31T18:11:46.045Z,7.93
2018-08-31T18:16:50.554Z,5.97
2018-08-31T18:21:54.063Z,4.83
2018-08-31T18:27:04.857Z,5.60
2018-08-31T18:32:09.244Z,5.77
2018-08-31T18:37:13.125Z,5.00
2018-08-31T18:42:16.490Z,5.40
2018-08-31T18:47:20.779Z,4.40
2018-08-31T18:52:24.936Z,4.33
2018-08-31T18:57:28.389Z,3.60
2018-08-31T19:02:31.805Z,3.57
2018-08-31T19:07:35.498Z,2.83
2018-08-31T19:12:39.241Z,4.17
2018-08-31T19:17:42.595Z,3.23
2018-08-31T19:22:46.219Z,3.67
2018-08-31T19:27:51.390Z,3.43
2018-08-31T19:33:01.120Z,3.60
2018-08-31T19:38:04.799Z,5.20
2018-08-31T19:43:08.721Z,5.27
2018-08-31T19:48:12.360Z,5.30
2018-08-31T19:53:18.625Z,5.40
2018-08-31T19:58:22.551Z,4.60
2018-08-31T20:03:27.455Z,4.17
2018-08-31T20:08:31.054Z,6.33
2018-08-31T20:13:34.809Z,5.20
2018-08-31T20:18:38.165Z,6.73
2018-08-31T20:23:41.744Z,5.93
2018-08-31T20:28:45.393Z,7.00
2018-08-31T20:33:48.739Z,5.43
2018-08-31T20:38:52.213Z,7.63
2018-08-31T20:43:55.563Z,7.00
2018-08-31T20:48:59.191Z,8.17
2018-08-31T20:54:02.585Z,10.23
2018-08-31T20:59:06.081Z,10.53
2018-08-31T21:04:09.473Z,11.80
2018-08-31T21:09:12.864Z,11.47
2018-08-31T21:14:16.219Z,13.40
2018-08-31T21:19:19.867Z,13.73
2018-08-31T21:24:23.374Z,15.43
2018-08-31T21:29:26.892Z,15.80
2018-08-31T21:34:30.227Z,14.10
2018-08-31T21:39:33.577Z,17.87
2018-08-31T21:44:37.013Z,13.60
2018-08-31T21:49:40.660Z,15.23
2018-08-31T21:54:44.808Z,8.50
2018-08-31T21:59:48.395Z,5.47
2018-08-31T22:04:52.184Z,8.70
2018-08-31T22:09:56.552Z,5.17
2018-08-31T22:15:00.128Z,4.77
2018-08-31T22:20:03.690Z,4.00
2018-08-31T22:25:09.529Z,4.13
2018-08-31T22:30:13.318Z,4.50
2018-08-31T22:35:16.898Z,4.70
2018-08-31T22:40:20.483Z,4.50
2018-08-31T22:45:24.815Z,4.60
2018-08-31T22:50:28.558Z,4.50
2018-08-31T22:55:32.773Z,4.67
2018-08-31T23:00:36.839Z,4.47
2018-08-31T23:05:40.617Z,3.80
2018-08-31T23:10:44.380Z,4.57
2018-08-31T23:15:57.740Z,4.40
2018-08-31T23:21:06.081Z,5.00
2018-08-31T23:26:09.838Z,4.37
2018-08-31T23:31:13.844Z,4.90
2018-08-31T23:36:17.983Z,4.80
2018-08-31T23:41:21.556Z,3.93
2018-08-31T23:46:24.869Z,4.70
2018-08-31T23:51:28.693Z,4.30
2018-08-31T23:56:32.487Z,4.20
